Time;durP1;ratioP1;P1;durP2;ratioP2;P2;SDS_P1;SDS_P2;PMS_P1;PMS_P2;Temp;Humidity;BMP_temperature;BMP_pressure;BME280_temperature;BME280_humidity;BME280_pressure;Samples;Min_cycle;Max_cycle;Signal;HPM_P1;HPM_P2
2023/04/18 00:01:27;;;;;;;24.60;22.50;;;7.90;99.90;;;;;;4880980;29;20304;-77
2023/04/18 00:03:56;;;;;;;25.80;23.50;;;7.90;99.90;;;;;;4882252;29;20259;-77
2023/04/18 00:06:24;;;;;;;25.20;22.90;;;7.90;99.90;;;;;;4881062;29;20228;-77
2023/04/18 00:08:51;;;;;;;25.30;23.07;;;7.90;99.90;;;;;;4893061;29;20212;-77
2023/04/18 00:11:18;;;;;;;26.30;24.00;;;7.90;99.90;;;;;;4891360;29;20291;-77
2023/04/18 00:13:46;;;;;;;25.20;23.00;;;7.90;99.90;;;;;;4882897;29;20253;-77
2023/04/18 00:16:13;;;;;;;26.30;24.00;;;7.90;99.90;;;;;;4884183;29;20202;-76
2023/04/18 00:18:40;;;;;;;28.23;25.70;;;7.90;99.90;;;;;;4882306;29;20217;-77
2023/04/18 00:21:08;;;;;;;27.20;24.40;;;7.90;99.90;;;;;;4879187;29;20205;-77
2023/04/18 00:23:36;;;;;;;27.17;24.57;;;7.90;99.90;;;;;;4882233;29;20205;-77
2023/04/18 00:26:03;;;;;;;27.03;24.63;;;7.90;99.90;;;;;;4889188;29;20667;-77
2023/04/18 00:28:29;;;;;;;27.53;24.83;;;7.90;99.90;;;;;;4891974;29;20205;-76
2023/04/18 00:30:56;;;;;;;27.67;25.10;;;7.90;99.90;;;;;;4896849;29;20200;-77
2023/04/18 00:33:23;;;;;;;29.63;26.73;;;7.90;99.90;;;;;;4888276;29;20224;-77
2023/04/18 00:35:52;;;;;;;26.93;24.43;;;7.80;99.90;;;;;;4893555;29;20244;-77
2023/04/18 00:38:20;;;;;;;29.53;26.43;;;7.80;99.90;;;;;;4882723;29;20288;-77
2023/04/18 00:40:48;;;;;;;27.90;25.20;;;7.80;99.90;;;;;;4879845;29;20292;-77
2023/04/18 00:43:15;;;;;;;25.63;22.93;;;7.80;99.90;;;;;;4890790;29;20268;-76
2023/04/18 00:45:42;;;;;;;27.87;25.10;;;7.90;99.90;;;;;;4881749;29;20209;-77
2023/04/18 00:48:10;;;;;;;27.50;24.80;;;7.90;99.90;;;;;;4881327;29;20780;-76
2023/04/18 00:50:37;;;;;;;27.23;24.57;;;7.80;99.90;;;;;;4887627;29;20676;-77
2023/04/18 00:53:04;;;;;;;27.70;25.03;;;7.80;99.90;;;;;;4888044;29;20200;-77
2023/04/18 00:55:33;;;;;;;28.40;25.60;;;7.90;99.90;;;;;;4884050;29;20205;-76
2023/04/18 00:58:00;;;;;;;30.30;27.40;;;7.80;99.90;;;;;;4886309;29;20265;-77
2023/04/18 01:00:27;;;;;;;28.53;25.67;;;7.80;99.90;;;;;;4890604;29;20211;-77
2023/04/18 01:02:54;;;;;;;26.43;23.97;;;7.80;99.90;;;;;;4886240;29;20322;-77
2023/04/18 01:05:22;;;;;;;28.73;25.97;;;7.80;99.90;;;;;;4884242;29;20204;-77
2023/04/18 01:07:49;;;;;;;27.40;24.87;;;7.70;99.90;;;;;;4883616;29;20293;-77
2023/04/18 01:10:16;;;;;;;27.43;24.80;;;7.80;99.90;;;;;;4891352;29;20208;-77
2023/04/18 01:12:44;;;;;;;27.60;25.07;;;7.80;99.90;;;;;;4882568;29;20260;-77
2023/04/18 01:15:11;;;;;;;27.70;25.20;;;7.80;99.90;;;;;;4879916;29;20257;-76
2023/04/18 01:17:38;;;;;;;25.67;23.37;;;7.80;99.90;;;;;;4881425;29;20235;-77
2023/04/18 01:20:06;;;;;;;28.10;25.40;;;7.80;99.90;;;;;;4884013;29;20672;-76
2023/04/18 01:22:33;;;;;;;27.63;24.90;;;7.80;99.90;;;;;;4884741;29;20225;-77
2023/04/18 01:25:07;;;;;;;26.40;23.80;;;7.80;99.90;;;;;;4882395;29;20251;-77
2023/04/18 01:27:34;;;;;;;26.87;24.47;;;7.80;99.90;;;;;;4884469;29;20247;-77
2023/04/18 01:30:00;;;;;;;28.80;26.00;;;7.80;99.90;;;;;;4885286;29;20208;-77
2023/04/18 01:32:29;;;;;;;27.47;24.87;;;7.70;99.90;;;;;;4886170;29;20216;-77
2023/04/18 01:34:56;;;;;;;27.43;24.90;;;7.80;99.90;;;;;;4878960;29;20208;-77
2023/04/18 01:37:23;;;;;;;27.50;25.00;;;7.80;99.90;;;;;;4883167;29;20663;-77
2023/04/18 01:39:50;;;;;;;28.60;25.97;;;7.80;99.90;;;;;;4885007;29;20212;-77
2023/04/18 01:42:20;;;;;;;27.20;24.50;;;7.80;99.90;;;;;;4885320;29;20220;-76
2023/04/18 01:44:47;;;;;;;26.47;24.03;;;7.70;99.90;;;;;;4882343;29;20206;-76
2023/04/18 01:47:13;;;;;;;27.60;25.03;;;7.80;99.90;;;;;;4884904;29;20237;-77
2023/04/18 01:49:41;;;;;;;27.57;25.07;;;7.80;99.90;;;;;;4885920;29;20248;-77
2023/04/18 01:52:08;;;;;;;26.70;24.20;;;7.70;99.90;;;;;;4887365;29;20204;-77
2023/04/18 01:54:35;;;;;;;27.50;24.93;;;7.70;99.90;;;;;;4886354;29;20677;-77
2023/04/18 01:57:02;;;;;;;28.23;25.63;;;7.70;99.90;;;;;;4895605;29;20255;-77
2023/04/18 01:59:30;;;;;;;25.53;23.23;;;7.70;99.90;;;;;;4885967;29;20278;-76
2023/04/18 02:01:57;;;;;;;26.83;24.37;;;7.60;99.90;;;;;;4880788;29;20717;-76
2023/04/18 02:04:25;;;;;;;25.47;23.07;;;7.70;99.90;;;;;;4885084;29;20201;-76
2023/04/18 02:06:52;;;;;;;25.97;23.47;;;7.70;99.90;;;;;;4888827;29;20728;-77
2023/04/18 02:09:18;;;;;;;26.13;23.53;;;7.70;99.90;;;;;;4889820;29;20204;-77
2023/04/18 02:11:45;;;;;;;25.10;22.80;;;7.70;99.90;;;;;;4882336;29;20246;-77
2023/04/18 02:14:12;;;;;;;26.33;23.90;;;7.70;99.90;;;;;;4883962;29;20209;-77
2023/04/18 02:16:40;;;;;;;26.10;23.73;;;7.60;99.90;;;;;;4884448;29;20314;-77
2023/04/18 02:19:07;;;;;;;27.20;24.60;;;7.60;99.90;;;;;;4885302;29;20215;-76
2023/04/18 02:21:34;;;;;;;25.33;23.00;;;7.60;99.90;;;;;;4885259;29;20614;-77
2023/04/18 02:24:01;;;;;;;25.13;22.87;;;7.70;99.90;;;;;;4882201;29;20232;-77
2023/04/18 02:26:28;;;;;;;26.60;24.10;;;7.70;99.90;;;;;;4886192;29;20221;-77
2023/04/18 02:28:58;;;;;;;27.03;24.53;;;7.70;99.90;;;;;;4882501;29;20217;-77
2023/04/18 02:31:25;;;;;;;27.53;25.03;;;7.60;99.90;;;;;;4884959;29;20211;-77
2023/04/18 02:33:53;;;;;;;24.83;22.67;;;7.60;99.90;;;;;;4893789;29;20276;-77
2023/04/18 02:36:22;;;;;;;25.77;23.47;;;7.60;99.90;;;;;;4885811;29;20227;-77
2023/04/18 02:38:48;;;;;;;25.93;23.63;;;7.60;99.90;;;;;;4890438;29;20212;-76
2023/04/18 02:41:18;;;;;;;24.50;22.50;;;7.70;99.90;;;;;;4884227;29;20197;-81
2023/04/18 02:43:45;;;;;;;24.60;22.50;;;7.70;99.90;;;;;;4886361;29;20609;-77
2023/04/18 02:46:13;;;;;;;24.30;22.23;;;7.70;99.90;;;;;;4880972;29;20216;-77
2023/04/18 02:48:40;;;;;;;24.73;22.53;;;7.70;99.90;;;;;;4882885;29;20198;-76
2023/04/18 02:51:10;;;;;;;25.33;23.03;;;7.60;99.90;;;;;;4885921;29;20211;-77
2023/04/18 02:53:38;;;;;;;24.10;21.97;;;7.70;99.90;;;;;;4897447;29;20197;-80
2023/04/18 02:56:06;;;;;;;27.10;24.43;;;7.60;99.90;;;;;;4893390;29;20214;-81
2023/04/18 02:58:59;;;;;;;24.63;22.33;;;7.60;99.90;;;;;;4900412;29;20208;-80
2023/04/18 03:01:49;;;;;;;24.70;22.43;;;7.60;99.90;;;;;;4899700;29;20264;-81
2023/04/18 03:04:18;;;;;;;23.73;21.50;;;7.60;99.90;;;;;;4903922;29;20206;-79
2023/04/18 03:06:58;;;;;;;23.87;21.77;;;7.60;99.90;;;;;;4903643;29;20227;-81
2023/04/18 03:09:25;;;;;;;22.97;20.97;;;7.50;99.90;;;;;;4904050;29;20228;-80
2023/04/18 03:11:56;;;;;;;24.70;22.50;;;7.60;99.90;;;;;;4907488;29;20210;-81
2023/04/18 03:14:26;;;;;;;23.37;21.27;;;7.60;99.90;;;;;;4902111;29;20350;-80
2023/04/18 03:16:55;;;;;;;24.37;22.23;;;7.50;99.90;;;;;;4900682;29;20227;-81
2023/04/18 03:19:26;;;;;;;23.50;21.50;;;7.50;99.90;;;;;;4909654;29;20247;-81
2023/04/18 03:21:56;;;;;;;22.27;20.30;;;7.60;99.90;;;;;;4893616;29;20205;-81
2023/04/18 03:24:23;;;;;;;22.90;20.77;;;7.60;99.90;;;;;;4888834;29;20255;-81
2023/04/18 03:26:53;;;;;;;22.53;20.53;;;7.50;99.90;;;;;;4897198;29;20290;-82
2023/04/18 03:29:24;;;;;;;22.97;20.90;;;7.50;99.90;;;;;;4900605;29;20205;-80
2023/04/18 03:31:51;;;;;;;23.17;21.07;;;7.50;99.90;;;;;;4894868;29;20216;-80
2023/04/18 03:34:18;;;;;;;23.40;21.30;;;7.50;99.90;;;;;;4903616;29;20202;-81
2023/04/18 03:36:45;;;;;;;24.83;22.57;;;7.60;99.90;;;;;;4897534;29;20308;-79
2023/04/18 03:39:13;;;;;;;22.93;21.03;;;7.50;99.90;;;;;;4900574;29;20257;-80
2023/04/18 03:41:40;;;;;;;22.07;20.13;;;7.50;99.90;;;;;;4892088;29;20199;-79
2023/04/18 03:44:07;;;;;;;24.07;21.97;;;7.50;99.90;;;;;;4897556;29;20247;-80
2023/04/18 03:46:36;;;;;;;22.70;20.80;;;7.50;99.90;;;;;;4891196;29;20228;-80
2023/04/18 03:49:04;;;;;;;23.50;21.40;;;7.50;99.90;;;;;;4894073;29;20645;-81
2023/04/18 03:51:33;;;;;;;23.23;21.13;;;7.60;99.90;;;;;;4891806;29;20255;-80
2023/04/18 03:54:00;;;;;;;24.63;22.43;;;7.60;99.90;;;;;;4882253;29;20287;-77
2023/04/18 03:56:28;;;;;;;23.77;21.77;;;7.60;99.90;;;;;;4892093;29;20903;-76
2023/04/18 03:58:57;;;;;;;24.10;22.10;;;7.50;99.90;;;;;;4879531;29;20208;-76
2023/04/18 04:01:24;;;;;;;23.23;21.27;;;7.50;99.90;;;;;;4877170;29;20219;-75
2023/04/18 04:03:52;;;;;;;24.90;22.70;;;7.50;99.90;;;;;;4884278;29;20232;-76
2023/04/18 04:06:20;;;;;;;24.77;22.67;;;7.50;99.90;;;;;;4883865;29;20230;-77
2023/04/18 04:08:47;;;;;;;23.17;21.13;;;7.40;99.90;;;;;;4888501;29;20204;-76
2023/04/18 04:11:17;;;;;;;25.63;23.37;;;7.50;99.90;;;;;;4881888;29;20201;-77
2023/04/18 04:13:46;;;;;;;25.10;22.90;;;7.40;99.90;;;;;;4881654;29;20711;-76
2023/04/18 04:16:15;;;;;;;23.00;21.23;;;7.40;99.90;;;;;;4877652;29;20596;-76
2023/04/18 04:18:43;;;;;;;24.20;21.97;;;7.50;99.90;;;;;;4887858;29;20203;-77
2023/04/18 04:21:10;;;;;;;23.40;21.40;;;7.40;99.90;;;;;;4884034;29;20795;-76
2023/04/18 04:23:45;;;;;;;24.73;22.63;;;7.50;99.90;;;;;;4879537;29;20225;-76
2023/04/18 04:26:22;;;;;;;24.53;22.30;;;7.40;99.90;;;;;;4891895;29;20223;-76
2023/04/18 04:28:58;;;;;;;25.93;23.43;;;7.40;99.90;;;;;;4893050;29;20682;-77
2023/04/18 04:31:27;;;;;;;23.60;21.60;;;7.40;99.90;;;;;;4895437;29;20203;-77
2023/04/18 04:33:54;;;;;;;23.53;21.53;;;7.40;99.90;;;;;;4895160;29;20262;-76
2023/04/18 04:36:23;;;;;;;22.80;20.80;;;7.40;99.90;;;;;;4890238;29;20228;-77
2023/04/18 04:38:52;;;;;;;24.57;22.47;;;7.40;99.90;;;;;;4884384;29;20232;-77
2023/04/18 04:41:23;;;;;;;24.27;22.07;;;7.40;99.90;;;;;;4882179;29;20646;-76
2023/04/18 04:43:51;;;;;;;23.80;21.63;;;7.40;99.90;;;;;;4882617;29;20645;-76
2023/04/18 04:46:23;;;;;;;24.17;21.90;;;7.40;99.90;;;;;;4886774;29;20722;-77
2023/04/18 04:48:51;;;;;;;24.73;22.53;;;7.40;99.90;;;;;;4880087;29;20215;-77
2023/04/18 04:51:18;;;;;;;26.07;23.57;;;7.40;99.90;;;;;;4876942;29;20189;-76
2023/04/18 04:53:45;;;;;;;26.00;23.60;;;7.40;99.90;;;;;;4876612;29;20204;-76
2023/04/18 04:56:12;;;;;;;26.63;24.30;;;7.40;99.90;;;;;;4887888;29;20258;-77
2023/04/18 04:58:39;;;;;;;26.03;23.73;;;7.40;99.90;;;;;;4882058;29;20294;-76
2023/04/18 05:01:15;;;;;;;25.37;23.37;;;7.40;99.90;;;;;;4882494;29;20234;-76
2023/04/18 05:03:43;;;;;;;25.30;23.20;;;7.40;99.90;;;;;;4881835;29;20213;-77
2023/04/18 05:06:10;;;;;;;23.40;21.60;;;7.40;99.90;;;;;;4879833;29;20635;-77
2023/04/18 05:08:37;;;;;;;24.40;22.30;;;7.50;99.90;;;;;;4884882;29;20628;-76
2023/04/18 05:11:04;;;;;;;25.27;22.80;;;7.50;99.90;;;;;;4887099;29;20205;-76
2023/04/18 05:13:31;;;;;;;25.27;22.77;;;7.50;99.90;;;;;;4881566;29;20197;-75
2023/04/18 05:15:58;;;;;;;26.80;24.30;;;7.50;99.90;;;;;;4883226;29;20205;-77
2023/04/18 05:18:25;;;;;;;24.67;22.57;;;7.50;99.90;;;;;;4887364;29;20232;-76
2023/04/18 05:20:57;;;;;;;23.40;21.37;;;7.50;99.90;;;;;;4886691;29;20268;-76
2023/04/18 05:23:24;;;;;;;24.73;22.70;;;7.50;99.90;;;;;;4888120;29;20272;-77
2023/04/18 05:25:50;;;;;;;23.60;21.53;;;7.50;99.90;;;;;;4883222;29;20212;-76
2023/04/18 05:28:17;;;;;;;24.43;22.43;;;7.50;99.90;;;;;;4886859;29;20255;-76
2023/04/18 05:30:44;;;;;;;25.00;22.93;;;7.50;99.90;;;;;;4889378;29;20626;-77
2023/04/18 05:33:11;;;;;;;25.33;23.13;;;7.60;99.90;;;;;;4885850;29;20204;-77
2023/04/18 05:35:38;;;;;;;25.80;23.57;;;7.60;99.90;;;;;;4886110;29;20746;-76
2023/04/18 05:38:06;;;;;;;24.43;22.43;;;7.60;99.90;;;;;;4882373;29;20229;-77
2023/04/18 05:40:33;;;;;;;25.93;23.53;;;7.70;99.90;;;;;;4883993;29;20229;-76
2023/04/18 05:43:00;;;;;;;25.83;23.63;;;7.70;99.90;;;;;;4886244;29;20212;-77
2023/04/18 05:45:27;;;;;;;26.43;24.20;;;7.70;99.90;;;;;;4886766;29;20210;-77
2023/04/18 05:47:54;;;;;;;26.43;24.23;;;7.80;99.90;;;;;;4885447;29;20318;-77
2023/04/18 05:50:21;;;;;;;26.47;24.30;;;7.80;99.90;;;;;;4914282;29;20208;-76
2023/04/18 05:52:48;;;;;;;27.23;24.87;;;7.80;99.90;;;;;;4887222;29;20296;-76
2023/04/18 05:55:16;;;;;;;27.70;25.40;;;7.80;99.90;;;;;;4881424;29;20233;-77
2023/04/18 05:57:43;;;;;;;26.80;24.63;;;7.80;99.90;;;;;;4883871;29;20225;-76
2023/04/18 06:00:11;;;;;;;26.97;24.60;;;7.80;99.90;;;;;;4886482;29;20618;-77
2023/04/18 06:02:41;;;;;;;28.00;25.60;;;7.80;99.90;;;;;;4885906;29;20248;-77
2023/04/18 06:05:08;;;;;;;28.20;25.60;;;7.80;99.90;;;;;;4887267;29;20216;-77
2023/04/18 06:07:36;;;;;;;28.40;25.83;;;7.80;99.90;;;;;;4882185;29;20229;-77
2023/04/18 06:10:04;;;;;;;28.63;26.03;;;7.80;99.90;;;;;;4884646;29;20296;-76
2023/04/18 06:12:32;;;;;;;26.67;24.40;;;7.70;99.90;;;;;;4880530;29;20204;-77
2023/04/18 06:14:59;;;;;;;29.07;26.47;;;7.80;99.90;;;;;;4890857;29;20541;-77
2023/04/18 06:17:26;;;;;;;27.60;25.20;;;7.80;99.90;;;;;;4886025;29;20583;-76
2023/04/18 06:19:53;;;;;;;26.77;24.50;;;7.80;99.90;;;;;;4886931;29;20232;-77
2023/04/18 06:22:19;;;;;;;26.63;24.40;;;7.80;99.90;;;;;;4884456;29;20204;-77
2023/04/18 06:24:46;;;;;;;25.87;23.47;;;7.90;99.90;;;;;;4912560;29;20605;-76
2023/04/18 06:27:13;;;;;;;27.40;25.03;;;7.90;99.90;;;;;;4894439;29;20231;-77
2023/04/18 06:29:42;;;;;;;26.63;24.53;;;7.90;99.90;;;;;;4885018;29;20291;-77
2023/04/18 06:32:09;;;;;;;27.87;25.40;;;7.90;99.90;;;;;;4882137;29;20201;-77
2023/04/18 06:34:37;;;;;;;26.40;24.13;;;8.00;99.90;;;;;;4886983;29;20201;-77
2023/04/18 06:37:04;;;;;;;26.63;24.43;;;8.10;99.90;;;;;;4881725;29;20268;-77
2023/04/18 06:39:31;;;;;;;28.17;25.77;;;8.20;99.90;;;;;;4902245;29;20295;-80
2023/04/18 06:41:58;;;;;;;26.30;24.03;;;8.20;99.90;;;;;;4896576;29;20575;-80
2023/04/18 06:44:30;;;;;;;25.07;22.97;;;8.20;99.90;;;;;;4893134;29;20727;-81
2023/04/18 06:46:58;;;;;;;26.93;24.60;;;8.40;99.90;;;;;;4894187;29;20225;-81
2023/04/18 06:49:25;;;;;;;26.37;24.23;;;8.30;99.90;;;;;;4885675;29;20589;-81
2023/04/18 06:51:52;;;;;;;26.43;24.23;;;8.30;99.90;;;;;;4889841;29;20679;-81
2023/04/18 06:54:19;;;;;;;25.40;23.30;;;8.40;99.90;;;;;;4888351;29;20212;-81
2023/04/18 06:56:46;;;;;;;24.77;22.77;;;8.50;99.90;;;;;;4901717;29;20628;-81
2023/04/18 06:59:12;;;;;;;27.50;25.10;;;8.50;99.90;;;;;;4903766;29;20276;-81
2023/04/18 07:01:41;;;;;;;27.57;25.27;;;8.50;99.90;;;;;;4889381;29;20209;-82
2023/04/18 07:04:09;;;;;;;27.43;25.13;;;8.50;99.90;;;;;;4906878;29;20248;-80
2023/04/18 07:06:36;;;;;;;27.40;25.10;;;8.40;99.90;;;;;;4893428;29;20284;-81
2023/04/18 07:09:03;;;;;;;28.20;25.70;;;8.40;99.90;;;;;;4895637;29;20208;-81
2023/04/18 07:11:30;;;;;;;27.03;24.50;;;8.50;99.90;;;;;;4893297;29;20205;-81
2023/04/18 07:13:57;;;;;;;26.83;24.33;;;8.40;99.90;;;;;;4893363;29;20628;-81
2023/04/18 07:16:24;;;;;;;25.47;23.37;;;8.50;99.90;;;;;;4894029;29;20225;-81
2023/04/18 07:18:51;;;;;;;26.77;24.40;;;8.50;99.90;;;;;;4891262;29;20205;-81
2023/04/18 07:21:19;;;;;;;25.20;23.13;;;8.50;99.90;;;;;;4896069;29;20279;-78
2023/04/18 07:23:46;;;;;;;27.30;24.90;;;8.70;99.90;;;;;;4892713;29;20225;-82
2023/04/18 07:26:13;;;;;;;28.33;25.93;;;8.70;99.90;;;;;;4893680;29;20265;-80
2023/04/18 07:28:40;;;;;;;21.87;19.53;;;8.70;99.90;;;;;;4890621;29;20201;-81
2023/04/18 07:31:10;;;;;;;23.50;21.57;;;8.70;99.90;;;;;;4896487;29;20201;-82
2023/04/18 07:33:37;;;;;;;25.33;23.23;;;8.70;99.90;;;;;;4905618;29;20939;-83
2023/04/18 07:36:04;;;;;;;16.93;14.27;;;8.70;99.90;;;;;;4889215;29;20209;-83
2023/04/18 07:38:33;;;;;;;19.73;17.63;;;8.70;99.90;;;;;;4900417;29;20457;-82
2023/04/18 07:41:02;;;;;;;24.90;22.73;;;8.70;99.90;;;;;;4895099;29;20473;-82
2023/04/18 07:43:28;;;;;;;26.87;24.63;;;8.80;99.90;;;;;;4890436;29;20205;-83
2023/04/18 07:45:55;;;;;;;25.37;23.17;;;8.90;99.90;;;;;;4901918;29;20208;-82
2023/04/18 07:48:24;;;;;;;26.33;24.13;;;9.00;99.90;;;;;;4893017;29;20213;-85
2023/04/18 07:50:50;;;;;;;25.47;23.27;;;9.00;99.90;;;;;;4886682;29;20269;-83
2023/04/18 07:53:17;;;;;;;25.10;22.93;;;9.00;99.90;;;;;;4889976;29;20638;-77
2023/04/18 07:55:46;;;;;;;25.93;23.70;;;9.00;99.90;;;;;;4884385;29;20201;-78
2023/04/18 07:58:13;;;;;;;26.10;23.90;;;9.00;99.90;;;;;;4895407;29;20220;-77
2023/04/18 08:00:41;;;;;;;25.57;23.37;;;8.90;99.90;;;;;;4894058;29;20261;-78
2023/04/18 08:03:10;;;;;;;26.37;23.67;;;8.90;99.90;;;;;;4893945;29;20244;-78
2023/04/18 08:05:37;;;;;;;25.07;23.07;;;8.90;99.90;;;;;;4895875;29;20281;-78
2023/04/18 08:08:05;;;;;;;22.80;20.92;;;9.00;99.90;;;;;;4895343;29;20446;-77
2023/04/18 08:10:32;;;;;;;22.13;20.23;;;9.10;99.90;;;;;;4898264;29;20847;-78
2023/04/18 08:13:00;;;;;;;25.00;23.00;;;9.20;99.90;;;;;;4894547;29;20209;-78
2023/04/18 08:15:27;;;;;;;24.70;22.67;;;9.30;99.90;;;;;;4892983;29;20189;-86
2023/04/18 08:17:54;;;;;;;24.17;22.17;;;9.40;99.90;;;;;;4893109;29;20503;-85
2023/04/18 08:20:22;;;;;;;24.03;22.03;;;9.40;99.90;;;;;;4893636;29;20205;-82
2023/04/18 08:22:49;;;;;;;16.73;15.13;;;9.40;99.90;;;;;;4892499;29;20744;-85
2023/04/18 08:25:16;;;;;;;18.07;16.27;;;9.30;99.90;;;;;;4884769;29;20229;-86
2023/04/18 08:27:43;;;;;;;18.60;16.63;;;9.30;99.90;;;;;;4886638;29;20226;-83
2023/04/18 08:30:13;;;;;;;25.87;23.77;;;9.40;99.90;;;;;;4902057;29;20204;-84
2023/04/18 08:32:40;;;;;;;27.13;24.67;;;9.50;99.90;;;;;;4901855;29;20261;-84
2023/04/18 08:35:07;;;;;;;27.20;24.90;;;9.40;99.90;;;;;;4898686;29;20257;-84
2023/04/18 08:37:35;;;;;;;25.80;23.60;;;9.50;99.90;;;;;;4901563;29;20228;-84
2023/04/18 08:40:02;;;;;;;25.17;23.03;;;9.60;99.90;;;;;;4892930;29;20233;-83
2023/04/18 08:42:29;;;;;;;26.97;24.67;;;9.70;99.90;;;;;;4888419;29;20231;-81
2023/04/18 08:44:58;;;;;;;26.60;24.37;;;9.90;99.90;;;;;;4900003;29;20270;-82
2023/04/18 08:47:28;;;;;;;26.80;24.37;;;10.00;99.90;;;;;;4898130;29;20768;-81
2023/04/18 08:49:56;;;;;;;25.87;23.77;;;10.10;99.90;;;;;;4898686;29;20207;-82
2023/04/18 08:52:24;;;;;;;26.40;24.20;;;10.20;99.90;;;;;;4901760;29;20209;-82
2023/04/18 08:54:51;;;;;;;20.37;18.43;;;10.20;99.90;;;;;;4891603;29;20269;-82
2023/04/18 08:57:25;;;;;;;24.17;22.00;;;10.20;99.90;;;;;;4900857;29;20588;-82
2023/04/18 08:59:52;;;;;;;19.10;17.03;;;10.20;99.90;;;;;;4902519;29;20273;-81
2023/04/18 09:02:22;;;;;;;18.10;16.27;;;10.20;99.90;;;;;;4892866;29;20200;-82
2023/04/18 09:04:52;;;;;;;18.40;16.47;;;10.20;99.90;;;;;;4902560;29;20236;-81
2023/04/18 09:07:20;;;;;;;23.80;21.70;;;10.40;99.90;;;;;;4904295;29;20311;-84
2023/04/18 09:09:48;;;;;;;25.30;23.13;;;10.40;99.90;;;;;;4894063;29;20769;-82
2023/04/18 09:12:18;;;;;;;21.43;19.43;;;10.50;99.90;;;;;;4900996;29;20259;-82
2023/04/18 09:14:47;;;;;;;21.43;19.53;;;10.60;99.90;;;;;;4895251;29;20200;-82
2023/04/18 09:17:17;;;;;;;24.63;22.53;;;10.70;99.90;;;;;;4892271;29;20672;-84
2023/04/18 09:19:48;;;;;;;23.87;21.67;;;10.80;99.90;;;;;;4896698;29;20210;-87
2023/04/18 09:22:17;;;;;;;20.90;18.90;;;10.80;99.90;;;;;;4903406;29;20612;-85
2023/04/18 09:24:54;;;;;;;21.37;18.33;;;10.80;99.90;;;;;;4903687;29;20309;-86
2023/04/18 09:27:22;;;;;;;28.80;26.33;;;10.80;99.90;;;;;;4901502;29;20231;-82
2023/04/18 09:29:50;;;;;;;27.53;25.07;;;10.80;99.90;;;;;;4897396;29;20214;-82
2023/04/18 09:32:23;;;;;;;27.87;25.53;;;10.90;99.90;;;;;;4893961;29;20631;-82
2023/04/18 09:34:53;;;;;;;27.17;24.97;;;11.10;99.90;;;;;;4898339;29;20204;-82
2023/04/18 09:37:21;;;;;;;22.83;20.83;;;11.30;99.90;;;;;;4900642;29;20240;-84
2023/04/18 09:39:49;;;;;;;22.87;20.87;;;11.60;99.90;;;;;;4903604;29;20220;-82
2023/04/18 09:42:17;;;;;;;23.23;21.23;;;11.80;99.90;;;;;;4903251;29;20200;-83
2023/04/18 09:44:59;;;;;;;23.70;21.63;;;12.00;99.90;;;;;;4899491;29;20220;-82
2023/04/18 09:47:27;;;;;;;21.40;19.10;;;12.00;99.90;;;;;;4901624;29;20239;-82
2023/04/18 09:49:54;;;;;;;16.97;15.37;;;12.10;99.90;;;;;;4901290;29;20667;-82
2023/04/18 09:52:24;;;;;;;16.50;14.83;;;12.30;99.90;;;;;;4897163;29;20229;-82
2023/04/18 09:54:57;;;;;;;16.83;15.03;;;12.60;99.90;;;;;;4890264;29;20201;-82
2023/04/18 09:57:27;;;;;;;15.97;14.37;;;12.50;99.90;;;;;;4895211;29;20232;-82
2023/04/18 10:00:01;;;;;;;15.80;14.13;;;12.80;99.90;;;;;;4898451;29;20233;-82
2023/04/18 10:02:39;;;;;;;15.53;13.80;;;13.00;99.90;;;;;;4900149;29;20211;-81
2023/04/18 10:05:08;;;;;;;15.73;13.37;;;13.20;99.90;;;;;;4903330;29;20280;-81
2023/04/18 10:07:37;;;;;;;15.73;13.33;;;13.40;99.90;;;;;;4895668;29;20289;-82
2023/04/18 10:10:07;;;;;;;15.70;14.07;;;13.60;99.90;;;;;;4903366;29;20288;-82
2023/04/18 10:12:36;;;;;;;13.80;12.40;;;13.50;99.90;;;;;;4903809;29;20201;-82
2023/04/18 10:15:04;;;;;;;15.70;13.30;;;13.50;99.90;;;;;;4903993;29;20204;-82
2023/04/18 10:17:41;;;;;;;14.20;12.80;;;13.40;99.90;;;;;;4902597;29;20236;-82
2023/04/18 10:20:09;;;;;;;13.87;12.03;;;13.40;99.90;;;;;;4899342;29;20204;-82
2023/04/18 10:22:38;;;;;;;13.83;12.43;;;13.50;99.90;;;;;;4904386;29;20568;-82
2023/04/18 10:25:06;;;;;;;13.90;12.13;;;13.50;99.90;;;;;;4903974;29;20212;-82
2023/04/18 10:27:55;;;;;;;13.27;11.80;;;13.50;99.90;;;;;;4902441;29;20229;-84
2023/04/18 10:30:50;;;;;;;13.63;12.23;;;13.60;99.90;;;;;;4903744;29;20209;-82
2023/04/18 10:33:25;;;;;;;13.47;12.07;;;13.50;99.90;;;;;;4903322;29;20296;-82
2023/04/18 10:35:59;;;;;;;14.43;13.03;;;13.50;99.90;;;;;;4900271;29;20220;-81
2023/04/18 10:38:28;;;;;;;13.03;11.63;;;13.50;99.90;;;;;;4902614;29;20204;-82
2023/04/18 10:41:13;;;;;;;14.07;12.67;;;13.50;99.90;;;;;;4902568;29;20207;-82
2023/04/18 10:44:10;;;;;;;14.50;13.03;;;13.50;99.90;;;;;;4903772;29;20233;-82
2023/04/18 10:46:38;;;;;;;14.33;12.83;;;13.50;99.90;;;;;;4899419;29;20255;-81
2023/04/18 10:49:13;;;;;;;11.83;10.63;;;13.40;99.90;;;;;;4902107;29;20243;-81
2023/04/18 10:51:40;;;;;;;12.77;11.47;;;13.60;99.90;;;;;;4902191;29;20204;-82
2023/04/18 10:54:11;;;;;;;12.60;11.30;;;13.50;99.90;;;;;;4903246;29;20227;-82
2023/04/18 10:56:38;;;;;;;13.33;11.93;;;13.60;99.90;;;;;;4902454;29;20226;-82
2023/04/18 10:59:05;;;;;;;12.97;11.67;;;13.50;99.90;;;;;;4902236;29;20208;-82
2023/04/18 11:01:36;;;;;;;12.83;11.53;;;13.40;99.90;;;;;;4903026;29;20216;-82
2023/04/18 11:04:12;;;;;;;13.57;12.30;;;13.50;99.90;;;;;;4897643;29;20209;-82
2023/04/18 11:06:48;;;;;;;13.73;12.43;;;13.40;99.90;;;;;;4901645;29;20291;-82
2023/04/18 11:09:16;;;;;;;12.43;11.23;;;13.40;99.90;;;;;;4918430;29;20239;-82
2023/04/18 11:11:43;;;;;;;13.70;10.63;;;13.40;99.90;;;;;;4893364;29;20202;-82
2023/04/18 11:14:10;;;;;;;13.27;11.97;;;13.40;99.90;;;;;;4895970;29;20257;-82
2023/04/18 11:16:37;;;;;;;12.50;11.30;;;13.50;99.90;;;;;;4891092;29;20241;-82
2023/04/18 11:19:18;;;;;;;11.40;10.30;;;13.70;99.90;;;;;;4889801;29;20213;-82
2023/04/18 11:21:45;;;;;;;11.63;10.53;;;13.60;99.90;;;;;;4896683;29;20265;-82
2023/04/18 11:24:23;;;;;;;12.57;11.37;;;13.70;99.90;;;;;;4891796;29;20677;-82
2023/04/18 11:26:54;;;;;;;12.97;11.63;;;13.80;99.90;;;;;;4891460;29;20340;-82
2023/04/18 11:29:21;;;;;;;12.80;11.60;;;13.80;99.90;;;;;;4895976;29;20224;-82
2023/04/18 11:31:52;;;;;;;12.30;10.73;;;14.00;99.90;;;;;;4898770;29;20669;-82
2023/04/18 11:34:18;;;;;;;11.73;10.57;;;13.80;99.90;;;;;;4889993;29;20229;-83
2023/04/18 11:36:49;;;;;;;11.63;10.43;;;13.80;99.90;;;;;;4890924;29;20284;-82
2023/04/18 11:39:16;;;;;;;12.27;11.07;;;13.80;99.90;;;;;;4883412;29;20283;-80
2023/04/18 11:41:49;;;;;;;11.53;10.53;;;13.60;99.90;;;;;;4886642;29;20209;-82
2023/04/18 11:44:16;;;;;;;16.60;15.37;;;13.50;99.90;;;;;;4887220;29;20632;-81
2023/04/18 11:46:43;;;;;;;15.80;14.50;;;13.30;99.90;;;;;;4895479;29;20689;-82
2023/04/18 11:49:25;;;;;;;15.43;13.87;;;13.10;99.90;;;;;;4895442;29;20228;-83
2023/04/18 11:51:52;;;;;;;19.47;18.07;;;13.00;99.90;;;;;;4884880;29;20673;-82
2023/04/18 11:54:38;;;;;;;17.23;15.73;;;13.20;99.90;;;;;;4892082;29;20218;-83
2023/04/18 11:57:18;;;;;;;18.97;17.37;;;13.40;99.90;;;;;;4901818;29;20224;-83
2023/04/18 11:59:48;;;;;;;12.17;11.07;;;13.70;99.90;;;;;;4893646;29;20213;-82
2023/04/18 12:02:15;;;;;;;14.67;13.37;;;14.30;99.90;;;;;;4894656;29;20213;-82
2023/04/18 12:04:57;;;;;;;11.87;10.87;;;14.60;99.90;;;;;;4890895;29;20208;-83
2023/04/18 12:07:35;;;;;;;13.40;12.13;;;14.80;99.90;;;;;;4893095;29;20761;-83
2023/04/18 12:10:02;;;;;;;11.50;10.37;;;14.80;99.90;;;;;;4890521;29;20206;-81
2023/04/18 12:12:30;;;;;;;12.07;10.97;;;15.00;99.90;;;;;;4884206;29;20214;-83
2023/04/18 12:15:02;;;;;;;11.50;10.37;;;15.10;99.90;;;;;;4895356;29;20209;-83
2023/04/18 12:17:31;;;;;;;10.93;9.97;;;15.20;99.90;;;;;;4888682;29;20294;-82
2023/04/18 12:20:01;;;;;;;10.63;9.63;;;15.40;99.90;;;;;;4889438;29;20204;-82
2023/04/18 12:22:39;;;;;;;10.50;9.53;;;15.30;99.90;;;;;;4899815;29;20215;-82
2023/04/18 12:25:21;;;;;;;10.43;9.43;;;15.40;99.90;;;;;;4892352;29;20204;-84
2023/04/18 12:27:58;;;;;;;10.70;9.77;;;15.30;99.90;;;;;;4901462;29;20232;-81
2023/04/18 12:30:27;;;;;;;11.67;10.67;;;15.40;99.90;;;;;;4898298;29;20239;-83
2023/04/18 12:32:55;;;;;;;11.07;9.97;;;15.40;99.90;;;;;;4902131;29;20232;-83
2023/04/18 12:35:23;;;;;;;10.70;9.70;;;15.40;99.90;;;;;;4890467;29;20204;-82
2023/04/18 12:37:51;;;;;;;11.10;10.10;;;15.40;99.90;;;;;;4891107;29;20244;-83
2023/04/18 12:40:18;;;;;;;10.73;9.70;;;15.20;99.90;;;;;;4890847;29;20205;-80
2023/04/18 12:42:46;;;;;;;12.00;11.00;;;15.20;99.90;;;;;;4889195;29;20195;-81